Time;durP1;ratioP1;P1;durP2;ratioP2;P2;SDS_P1;SDS_P2;PMS_P1;PMS_P2;Temp;Humidity;BMP_temperature;BMP_pressure;BME280_temperature;BME280_humidity;BME280_pressure;Samples;Min_cycle;Max_cycle;Signal;HPM_P1;HPM_P2
2021/12/07 00:00:52;;;;;;;24.15;11.43;;;;;;;;;;5010852;28;45354;-86
2021/12/07 00:03:20;;;;;;;14.38;8.32;;;;;;;;;;5011317;28;43860;-85
2021/12/07 00:05:47;;;;;;;12.20;8.23;;;;;;;;;;5010617;28;43684;-84
2021/12/07 00:08:14;;;;;;;15.60;8.55;;;;;;;;;;5010929;28;45964;-85
2021/12/07 00:10:42;;;;;;;12.57;7.88;;;;;;;;;;5011079;28;42865;-86
2021/12/07 00:13:10;;;;;;;18.35;10.00;;;;;;;;;;5010363;28;44627;-86
2021/12/07 00:15:37;;;;;;;16.10;9.63;;;;;;;;;;5011023;28;46236;-85
2021/12/07 00:18:04;;;;;;;18.48;10.95;;;;;;;;;;5011280;28;42739;-85
2021/12/07 00:20:31;;;;;;;23.17;10.25;;;;;;;;;;5010728;28;45699;-85
2021/12/07 00:22:59;;;;;;;23.38;10.35;;;;;;;;;;5010861;28;44950;-86
2021/12/07 00:25:26;;;;;;;12.15;8.13;;;;;;;;;;5010621;28;43764;-85
2021/12/07 00:27:53;;;;;;;15.68;9.15;;;;;;;;;;5009018;28;46364;-85
2021/12/07 00:30:20;;;;;;;28.35;11.98;;;;;;;;;;5011064;28;43713;-85
2021/12/07 00:33:06;;;;;;;25.33;10.88;;;;;;;;;;5009733;28;45749;-83
2021/12/07 00:35:34;;;;;;;21.38;10.48;;;;;;;;;;5010731;28;45038;-84
2021/12/07 00:38:09;;;;;;;19.45;9.68;;;;;;;;;;5010965;28;43877;-86
2021/12/07 00:40:37;;;;;;;22.92;11.25;;;;;;;;;;5010397;28;43663;-85
2021/12/07 00:43:03;;;;;;;26.65;11.70;;;;;;;;;;5010498;28;43881;-84
2021/12/07 00:45:33;;;;;;;27.05;13.80;;;;;;;;;;5010481;28;45781;-85
2021/12/07 00:48:00;;;;;;;19.33;12.13;;;;;;;;;;5009883;28;46255;-85
2021/12/07 00:50:27;;;;;;;47.95;16.88;;;;;;;;;;5010434;28;44062;-86
2021/12/07 00:52:55;;;;;;;24.58;13.13;;;;;;;;;;5010632;28;43740;-85
2021/12/07 00:55:25;;;;;;;38.43;15.70;;;;;;;;;;5009819;28;45950;-86
2021/12/07 00:57:54;;;;;;;30.77;14.35;;;;;;;;;;5010299;28;42841;-85
2021/12/07 01:00:21;;;;;;;29.98;13.82;;;;;;;;;;5009699;28;46111;-86
2021/12/07 01:02:47;;;;;;;25.30;13.23;;;;;;;;;;5010206;28;45163;-85
2021/12/07 01:05:21;;;;;;;28.95;14.52;;;;;;;;;;5010173;28;45074;-85
2021/12/07 01:07:57;;;;;;;26.25;14.20;;;;;;;;;;5009697;28;45922;-84
2021/12/07 01:27:03;;;;;;;52.65;17.10;;;;;;;;;;5010599;28;42908;-86
2021/12/07 01:29:30;;;;;;;30.20;15.38;;;;;;;;;;5009279;28;45159;-86
2021/12/07 01:32:24;;;;;;;28.30;14.93;;;;;;;;;;5009604;28;42949;-86
2021/12/07 01:38:34;;;;;;;41.65;16.80;;;;;;;;;;5009453;28;43890;-86
2021/12/07 01:59:35;;;;;;;50.08;19.73;;;;;;;;;;4989478;28;43221;-86
2021/12/07 02:02:04;;;;;;;58.45;21.55;;;;;;;;;;4989513;28;43960;-86
2021/12/07 02:04:31;;;;;;;45.67;16.67;;;;;;;;;;4989165;28;44713;-85
2021/12/07 02:06:58;;;;;;;58.17;21.30;;;;;;;;;;4989637;28;46180;-86
2021/12/07 02:09:25;;;;;;;54.47;22.05;;;;;;;;;;4989366;28;42704;-86
2021/12/07 02:11:58;;;;;;;43.58;19.52;;;;;;;;;;4988434;28;44730;-85
2021/12/07 02:14:26;;;;;;;74.53;22.02;;;;;;;;;;4989759;28;45055;-86
2021/12/07 02:16:54;;;;;;;75.80;22.48;;;;;;;;;;4989578;28;44754;-85
2021/12/07 02:19:21;;;;;;;41.55;19.00;;;;;;;;;;4989063;28;44965;-85
2021/12/07 02:21:48;;;;;;;47.90;18.57;;;;;;;;;;4990184;28;20061;-85
2021/12/07 02:24:15;;;;;;;70.32;22.08;;;;;;;;;;4990475;28;45793;-85
2021/12/07 02:26:42;;;;;;;52.28;20.40;;;;;;;;;;4988941;28;43985;-86
2021/12/07 02:29:09;;;;;;;64.45;23.27;;;;;;;;;;5000764;28;44951;-85
2021/12/07 02:31:35;;;;;;;48.50;21.38;;;;;;;;;;5008386;28;43687;-85
2021/12/07 02:34:03;;;;;;;66.32;23.30;;;;;;;;;;5008522;28;43993;-86
2021/12/07 02:36:30;;;;;;;69.90;24.13;;;;;;;;;;5008911;28;36460;-85
2021/12/07 02:38:57;;;;;;;69.82;24.42;;;;;;;;;;5008339;28;46248;-86
2021/12/07 02:41:24;;;;;;;56.55;22.05;;;;;;;;;;5008238;28;42909;-84
2021/12/07 02:43:51;;;;;;;101.03;24.20;;;;;;;;;;5009039;28;44703;-84
2021/12/07 02:46:17;;;;;;;67.25;21.55;;;;;;;;;;5008679;28;45946;-85
2021/12/07 02:48:44;;;;;;;87.70;24.42;;;;;;;;;;5008278;28;44940;-84
2021/12/07 02:51:11;;;;;;;63.20;21.35;;;;;;;;;;5010114;28;43515;-84
2021/12/07 02:53:39;;;;;;;48.72;18.58;;;;;;;;;;5013055;28;20046;-85
2021/12/07 02:56:06;;;;;;;63.13;20.13;;;;;;;;;;5012073;28;44254;-85
2021/12/07 02:58:34;;;;;;;60.03;19.55;;;;;;;;;;5012107;28;45959;-85
2021/12/07 03:01:14;;;;;;;104.57;21.30;;;;;;;;;;5011191;28;44918;-86
2021/12/07 03:03:53;;;;;;;48.95;17.77;;;;;;;;;;5012200;28;45815;-84
2021/12/07 03:06:34;;;;;;;;;;;;;;;;;;5013487;28;43909;-85
2021/12/07 03:09:45;;;;;;;56.92;18.48;;;;;;;;;;5012029;28;45142;-85
2021/12/07 03:26:10;;;;;;;53.97;12.32;;;;;;;;;;4968289;28;43914;-84
2021/12/07 03:28:47;;;;;;;33.95;8.95;;;;;;;;;;5011192;28;45304;-86
2021/12/07 03:31:15;;;;;;;30.17;9.77;;;;;;;;;;5011588;28;44947;-85
2021/12/07 03:33:42;;;;;;;37.33;8.90;;;;;;;;;;5012089;28;44639;-85
2021/12/07 03:36:09;;;;;;;24.05;6.60;;;;;;;;;;5011218;28;43288;-85
2021/12/07 03:38:36;;;;;;;37.50;8.70;;;;;;;;;;5011488;28;43858;-85
2021/12/07 03:41:03;;;;;;;36.10;7.22;;;;;;;;;;5011491;28;45671;-85
2021/12/07 03:43:31;;;;;;;36.35;7.85;;;;;;;;;;5011036;28;44918;-85
2021/12/07 03:45:58;;;;;;;;;;;;;;;;;;5012819;28;44925;-84
2021/12/07 03:48:26;;;;;;;37.28;7.00;;;;;;;;;;5011499;28;44066;-85
2021/12/07 03:50:52;;;;;;;36.65;6.22;;;;;;;;;;5010672;28;45144;-84
2021/12/07 03:53:19;;;;;;;20.92;5.20;;;;;;;;;;5011407;28;43330;-85
2021/12/07 03:55:46;;;;;;;21.67;5.28;;;;;;;;;;5011180;28;46007;-84
2021/12/07 03:58:13;;;;;;;24.80;4.60;;;;;;;;;;5010733;28;44886;-84
2021/12/07 04:00:43;;;;;;;22.48;4.00;;;;;;;;;;5011088;28;43677;-84
2021/12/07 04:03:12;;;;;;;15.45;3.75;;;;;;;;;;5009644;28;44924;-84
2021/12/07 04:05:48;;;;;;;22.48;3.45;;;;;;;;;;5010933;28;42901;-84
2021/12/07 04:08:17;;;;;;;24.58;3.45;;;;;;;;;;5011058;28;44819;-85
2021/12/07 04:10:44;;;;;;;29.42;3.45;;;;;;;;;;5010908;28;44881;-85
2021/12/07 04:13:11;;;;;;;14.70;3.30;;;;;;;;;;5011329;28;45874;-85
2021/12/07 04:15:38;;;;;;;20.15;2.97;;;;;;;;;;5011223;28;41046;-84
2021/12/07 04:18:04;;;;;;;22.52;3.22;;;;;;;;;;5010377;28;44897;-84
2021/12/07 04:20:31;;;;;;;15.70;2.63;;;;;;;;;;5011201;28;46114;-85
2021/12/07 04:22:58;;;;;;;19.80;2.83;;;;;;;;;;5010639;28;46020;-85
2021/12/07 04:25:25;;;;;;;17.35;2.33;;;;;;;;;;5010367;28;44982;-85
2021/12/07 04:27:52;;;;;;;25.25;3.42;;;;;;;;;;5011258;28;43595;-85
2021/12/07 04:30:20;;;;;;;14.02;2.80;;;;;;;;;;5010621;28;45166;-85
2021/12/07 04:32:47;;;;;;;;;;;;;;;;;;5011259;28;44740;-84
2021/12/07 04:35:15;;;;;;;19.00;3.15;;;;;;;;;;5010922;28;44045;-85
2021/12/07 04:37:42;;;;;;;14.75;2.55;;;;;;;;;;5010497;28;43996;-85
2021/12/07 04:40:10;;;;;;;13.75;2.30;;;;;;;;;;5010067;28;44642;-85
2021/12/07 04:42:37;;;;;;;18.75;2.55;;;;;;;;;;5010563;28;46049;-85
2021/12/07 04:45:07;;;;;;;11.93;1.80;;;;;;;;;;5010369;28;43965;-85
2021/12/07 04:47:54;;;;;;;13.43;1.95;;;;;;;;;;5010529;28;44659;-84
2021/12/07 04:50:36;;;;;;;17.05;2.13;;;;;;;;;;5010472;28;43855;-85
2021/12/07 04:58:33;;;;;;;26.33;2.83;;;;;;;;;;5010338;28;42773;-85
2021/12/07 05:01:01;;;;;;;13.10;2.38;;;;;;;;;;5009473;28;45776;-85
2021/12/07 05:03:29;;;;;;;16.03;2.73;;;;;;;;;;5008149;28;43886;-85
2021/12/07 05:05:57;;;;;;;21.52;3.33;;;;;;;;;;5007758;28;43908;-86
2021/12/07 05:08:37;;;;;;;24.83;3.30;;;;;;;;;;5007535;28;44690;-85
2021/12/07 05:13:39;;;;;;;30.15;4.53;;;;;;;;;;5009431;28;45803;-85
2021/12/07 05:24:08;;;;;;;16.92;3.22;;;;;;;;;;5009199;28;44195;-85
2021/12/07 05:37:49;;;;;;;30.98;3.40;;;;;;;;;;5000201;28;44994;-86
2021/12/07 05:40:17;;;;;;;26.35;3.65;;;;;;;;;;5007912;28;42971;-85
2021/12/07 05:42:44;;;;;;;;;;;;;;;;;;5009929;28;45772;-85
2021/12/07 05:45:15;;;;;;;12.07;2.95;;;;;;;;;;5009791;28;45023;-85
2021/12/07 05:47:42;;;;;;;18.95;3.22;;;;;;;;;;5010051;28;43738;-84
2021/12/07 05:50:10;;;;;;;28.98;5.03;;;;;;;;;;5008939;28;44527;-85
2021/12/07 05:52:37;;;;;;;34.90;5.93;;;;;;;;;;5009631;28;45987;-86
2021/12/07 05:55:05;;;;;;;35.33;6.88;;;;;;;;;;5009438;28;44938;-85
2021/12/07 05:57:31;;;;;;;48.35;7.78;;;;;;;;;;5009247;28;43670;-86
2021/12/07 05:59:58;;;;;;;36.03;6.78;;;;;;;;;;5009311;28;45016;-86
2021/12/07 06:02:25;;;;;;;22.92;6.05;;;;;;;;;;5009134;28;45793;-85
2021/12/07 06:04:52;;;;;;;34.63;7.10;;;;;;;;;;5009031;28;43977;-85
2021/12/07 06:07:18;;;;;;;43.05;7.75;;;;;;;;;;5009162;28;42428;-85
2021/12/07 06:09:45;;;;;;;37.03;7.22;;;;;;;;;;5008649;28;44676;-85
2021/12/07 06:12:12;;;;;;;36.28;6.28;;;;;;;;;;5008700;28;44850;-85
2021/12/07 06:14:43;;;;;;;30.33;6.32;;;;;;;;;;5009178;28;45117;-86
2021/12/07 06:17:11;;;;;;;36.53;6.40;;;;;;;;;;5009249;28;45711;-86
2021/12/07 06:19:37;;;;;;;35.38;6.22;;;;;;;;;;5009351;28;45985;-86
2021/12/07 06:22:05;;;;;;;26.10;6.47;;;;;;;;;;5009089;28;43211;-87
2021/12/07 06:24:32;;;;;;;27.33;6.95;;;;;;;;;;5008382;28;45126;-87
2021/12/07 06:27:02;;;;;;;35.63;7.00;;;;;;;;;;5013101;28;20062;-88
2021/12/07 06:29:29;;;;;;;32.47;6.50;;;;;;;;;;5012514;28;43656;-88
2021/12/07 06:31:55;;;;;;;30.80;6.93;;;;;;;;;;5011182;28;45910;-87
2021/12/07 06:34:22;;;;;;;26.73;7.32;;;;;;;;;;5012289;28;43793;-87
2021/12/07 06:36:49;;;;;;;40.67;7.75;;;;;;;;;;5012633;28;44673;-87
2021/12/07 06:39:18;;;;;;;44.58;7.32;;;;;;;;;;5011957;28;43309;-87
2021/12/07 06:41:44;;;;;;;32.70;6.30;;;;;;;;;;5012594;28;42954;-86
2021/12/07 06:44:11;;;;;;;35.13;6.90;;;;;;;;;;5012088;28;43968;-87
2021/12/07 06:46:38;;;;;;;39.00;6.70;;;;;;;;;;5013144;28;20505;-86
2021/12/07 06:49:05;;;;;;;39.28;6.53;;;;;;;;;;5012345;28;43826;-86
2021/12/07 06:51:32;;;;;;;35.17;5.80;;;;;;;;;;5012130;28;46057;-87
2021/12/07 06:54:02;;;;;;;39.28;6.85;;;;;;;;;;5011681;28;44212;-87
2021/12/07 06:56:29;;;;;;;29.50;5.22;;;;;;;;;;5012174;28;44638;-87
2021/12/07 06:58:55;;;;;;;36.15;6.85;;;;;;;;;;5011973;28;46076;-87
2021/12/07 07:01:22;;;;;;;28.20;5.20;;;;;;;;;;5011363;28;44899;-87
2021/12/07 07:03:49;;;;;;;25.33;5.88;;;;;;;;;;5012172;28;44950;-87
2021/12/07 07:06:15;;;;;;;39.35;7.53;;;;;;;;;;5011702;28;44905;-87
2021/12/07 07:08:42;;;;;;;58.10;7.80;;;;;;;;;;5011650;28;45880;-86
2021/12/07 07:11:09;;;;;;;25.85;6.07;;;;;;;;;;5011669;28;43741;-87
2021/12/07 07:13:38;;;;;;;35.08;6.50;;;;;;;;;;5011541;28;43921;-87
2021/12/07 07:16:05;;;;;;;26.42;6.38;;;;;;;;;;5011910;28;45642;-87
2021/12/07 07:18:34;;;;;;;45.67;6.90;;;;;;;;;;5011956;28;45024;-87
2021/12/07 07:21:00;;;;;;;;;;;;;;;;;;5012215;28;42800;-87
2021/12/07 07:23:28;;;;;;;25.38;4.90;;;;;;;;;;5012109;28;44327;-87
2021/12/07 07:25:55;;;;;;;23.10;5.97;;;;;;;;;;5011711;28;43913;-87
2021/12/07 07:28:23;;;;;;;24.38;5.88;;;;;;;;;;5010615;28;43645;-87
2021/12/07 07:30:50;;;;;;;26.17;5.93;;;;;;;;;;5011570;28;43984;-88
2021/12/07 07:33:17;;;;;;;41.75;7.82;;;;;;;;;;5011597;28;43883;-88
2021/12/07 07:35:44;;;;;;;17.25;6.65;;;;;;;;;;5011082;28;43671;-88
2021/12/07 07:38:11;;;;;;;23.42;6.80;;;;;;;;;;5011049;28;44904;-88
2021/12/07 07:40:37;;;;;;;27.92;7.22;;;;;;;;;;5011374;28;41785;-88
2021/12/07 07:43:04;;;;;;;33.15;7.82;;;;;;;;;;5010840;28;43895;-89
2021/12/07 07:45:31;;;;;;;28.00;7.82;;;;;;;;;;5011766;28;46152;-87
2021/12/07 07:47:57;;;;;;;26.83;9.07;;;;;;;;;;5011484;28;44673;-89
2021/12/07 07:50:24;;;;;;;33.92;9.40;;;;;;;;;;5011223;28;45951;-88
2021/12/07 07:52:51;;;;;;;37.05;9.13;;;;;;;;;;5011314;28;44708;-88
2021/12/07 07:55:18;;;;;;;34.80;9.32;;;;;;;;;;5010971;28;45698;-89
2021/12/07 07:57:44;;;;;;;43.90;9.65;;;;;;;;;;5010864;28;45170;-91
2021/12/07 08:00:15;;;;;;;47.65;11.35;;;;;;;;;;5011326;28;44959;-91
2021/12/07 08:02:42;;;;;;;50.78;10.52;;;;;;;;;;5011243;28;44262;-91
2021/12/07 08:05:10;;;;;;;27.23;8.88;;;;;;;;;;5010332;28;44935;-89
2021/12/07 08:07:36;;;;;;;28.13;10.23;;;;;;;;;;5009864;28;43919;-87
2021/12/07 08:10:04;;;;;;;34.67;9.27;;;;;;;;;;5013333;28;46055;-87
2021/12/07 08:12:31;;;;;;;41.43;10.70;;;;;;;;;;5010372;28;44916;-87
2021/12/07 08:14:57;;;;;;;31.20;10.60;;;;;;;;;;5009012;28;43117;-87
2021/12/07 08:17:24;;;;;;;41.30;11.05;;;;;;;;;;5007649;28;43849;-89
2021/12/07 08:19:51;;;;;;;43.80;12.57;;;;;;;;;;5009787;28;20479;-86
2021/12/07 08:22:18;;;;;;;32.35;10.32;;;;;;;;;;5009873;28;43650;-87
2021/12/07 08:24:45;;;;;;;38.03;10.85;;;;;;;;;;5009807;28;44979;-86
2021/12/07 08:27:12;;;;;;;42.22;10.18;;;;;;;;;;5014976;28;43935;-85
2021/12/07 08:29:55;;;;;;;35.30;9.90;;;;;;;;;;5012022;28;45615;-84
2021/12/07 08:32:21;;;;;;;45.25;10.38;;;;;;;;;;5009535;28;43885;-88
2021/12/07 08:34:48;;;;;;;41.10;10.60;;;;;;;;;;5011268;28;44742;-85
2021/12/07 08:37:15;;;;;;;30.35;10.40;;;;;;;;;;5010010;28;46279;-85
2021/12/07 08:39:42;;;;;;;29.63;10.43;;;;;;;;;;5010308;28;44944;-84
2021/12/07 08:42:09;;;;;;;40.25;12.57;;;;;;;;;;5010268;28;44690;-84
2021/12/07 08:44:36;;;;;;;33.88;9.95;;;;;;;;;;5010445;28;30063;-82
2021/12/07 08:47:03;;;;;;;31.83;9.57;;;;;;;;;;5016508;28;44877;-90
2021/12/07 08:49:29;;;;;;;41.13;10.77;;;;;;;;;;5017131;28;43705;-91
2021/12/07 08:51:56;;;;;;;38.55;10.15;;;;;;;;;;5019006;28;45945;-92
2021/12/07 09:02:08;;;;;;;20.80;7.82;;;;;;;;;;5013546;28;45685;-91
2021/12/07 09:04:35;;;;;;;24.83;7.18;;;;;;;;;;5008802;28;43966;-91
2021/12/07 09:07:01;;;;;;;30.65;7.22;;;;;;;;;;5008203;28;43968;-90
2021/12/07 09:09:29;;;;;;;30.90;7.57;;;;;;;;;;5010315;28;45863;-91
2021/12/07 09:11:55;;;;;;;38.70;7.50;;;;;;;;;;5019454;28;43948;-92
2021/12/07 09:14:29;;;;;;;34.90;8.25;;;;;;;;;;5014052;28;46079;-91
2021/12/07 09:16:56;;;;;;;38.55;9.00;;;;;;;;;;5012838;28;43602;-92
2021/12/07 09:19:23;;;;;;;26.88;7.65;;;;;;;;;;5012297;28;42903;-93
2021/12/07 09:21:50;;;;;;;30.05;9.27;;;;;;;;;;5009162;28;43905;-91
2021/12/07 09:24:16;;;;;;;26.50;7.45;;;;;;;;;;5009975;28;44211;-83
2021/12/07 09:26:43;;;;;;;34.67;7.68;;;;;;;;;;5009840;28;43986;-83
2021/12/07 09:29:10;;;;;;;35.45;8.45;;;;;;;;;;5009346;28;46379;-91
2021/12/07 09:31:36;;;;;;;27.60;7.97;;;;;;;;;;5009400;28;46364;-92
2021/12/07 09:34:04;;;;;;;22.23;8.23;;;;;;;;;;5010011;28;43837;-90
2021/12/07 09:36:31;;;;;;;39.47;8.52;;;;;;;;;;5005654;28;45772;-90
2021/12/07 09:38:58;;;;;;;28.88;6.55;;;;;;;;;;5008555;28;43901;-81
2021/12/07 09:41:25;;;;;;;33.80;8.43;;;;;;;;;;5008529;28;43457;-82
2021/12/07 09:43:52;;;;;;;28.42;7.55;;;;;;;;;;5008029;28;43907;-91
2021/12/07 09:46:19;;;;;;;30.75;8.80;;;;;;;;;;5007390;28;42434;-86
2021/12/07 09:48:46;;;;;;;34.58;11.35;;;;;;;;;;5007198;28;43089;-83
2021/12/07 09:51:16;;;;;;;29.97;9.97;;;;;;;;;;5009059;28;45941;-83
2021/12/07 09:53:44;;;;;;;37.50;9.20;;;;;;;;;;5009132;28;44912;-86
2021/12/07 09:56:11;;;;;;;36.47;8.77;;;;;;;;;;5009023;28;45633;-90
2021/12/07 09:58:38;;;;;;;24.15;7.07;;;;;;;;;;5009509;28;43048;-88
2021/12/07 10:01:05;;;;;;;33.03;9.40;;;;;;;;;;5008919;28;46407;-87
2021/12/07 10:03:35;;;;;;;20.73;8.23;;;;;;;;;;5008056;28;45976;-88
2021/12/07 10:06:04;;;;;;;24.25;8.38;;;;;;;;;;5008406;28;42887;-87
2021/12/07 10:08:31;;;;;;;21.80;7.53;;;;;;;;;;5008655;28;45717;-89
2021/12/07 10:10:59;;;;;;;26.45;7.20;;;;;;;;;;5007922;28;43868;-87
2021/12/07 10:13:27;;;;;;;33.78;8.45;;;;;;;;;;5008626;28;43849;-87
2021/12/07 10:15:56;;;;;;;33.85;8.65;;;;;;;;;;5008308;28;43679;-90
2021/12/07 10:18:24;;;;;;;28.05;7.18;;;;;;;;;;5007695;28;44018;-83
2021/12/07 10:21:09;;;;;;;29.45;8.02;;;;;;;;;;5007916;28;45791;-81
2021/12/07 10:23:40;;;;;;;27.77;7.50;;;;;;;;;;5008002;28;45175;-90
2021/12/07 10:26:10;;;;;;;43.30;8.13;;;;;;;;;;5008099;28;43888;-92
2021/12/07 10:28:38;;;;;;;28.77;8.45;;;;;;;;;;5008120;28;42848;-87
2021/12/07 10:31:05;;;;;;;;;;;;;;;;;;5006489;28;44470;-86
2021/12/07 10:33:31;;;;;;;24.73;7.47;;;;;;;;;;4990214;28;19937;-87
2021/12/07 10:36:06;;;;;;;28.30;7.18;;;;;;;;;;4987329;28;44800;-85
2021/12/07 10:38:33;;;;;;;38.42;9.43;;;;;;;;;;4987726;28;45963;-88
2021/12/07 10:41:02;;;;;;;37.58;10.13;;;;;;;;;;4988090;28;44273;-86
2021/12/07 10:43:48;;;;;;;30.83;8.30;;;;;;;;;;5005567;28;20055;-87
2021/12/07 10:46:24;;;;;;;30.10;7.70;;;;;;;;;;5006499;28;42907;-87
2021/12/07 10:49:06;;;;;;;32.30;7.47;;;;;;;;;;5007346;28;45024;-88
2021/12/07 10:51:33;;;;;;;27.77;7.50;;;;;;;;;;4993258;28;45023;-85
2021/12/07 10:54:00;;;;;;;38.70;8.13;;;;;;;;;;4986257;28;44892;-92
2021/12/07 10:56:30;;;;;;;27.33;7.55;;;;;;;;;;4987657;28;45806;-87
2021/12/07 10:58:57;;;;;;;23.98;7.40;;;;;;;;;;4986809;28;44976;-87
2021/12/07 11:01:35;;;;;;;31.40;7.40;;;;;;;;;;4987046;28;44986;-88
2021/12/07 11:04:20;;;;;;;29.38;6.95;;;;;;;;;;4987608;28;43435;-92
2021/12/07 11:07:06;;;;;;;32.60;7.50;;;;;;;;;;4988708;28;20142;-89
2021/12/07 11:09:42;;;;;;;26.05;7.47;;;;;;;;;;4987935;28;40216;-81
2021/12/07 11:12:09;;;;;;;26.33;7.07;;;;;;;;;;4987831;28;44900;-90
2021/12/07 11:14:49;;;;;;;21.50;7.57;;;;;;;;;;4990842;28;42877;-92
2021/12/07 11:17:19;;;;;;;27.55;6.90;;;;;;;;;;4991202;28;45418;-84
2021/12/07 11:19:50;;;;;;;27.90;6.80;;;;;;;;;;4989708;28;43975;-87
2021/12/07 11:22:18;;;;;;;25.60;6.85;;;;;;;;;;4990913;28;42858;-87
2021/12/07 11:24:45;;;;;;;29.25;7.05;;;;;;;;;;4991130;28;44501;-91
2021/12/07 11:30:10;;;;;;;25.85;6.38;;;;;;;;;;5007905;28;45685;-85
2021/12/07 11:32:40;;;;;;;20.30;6.70;;;;;;;;;;5009855;28;46205;-86
2021/12/07 11:35:10;;;;;;;22.00;5.88;;;;;;;;;;4991054;28;44326;-91
2021/12/07 11:37:37;;;;;;;21.17;6.47;;;;;;;;;;4989643;28;43676;-89
2021/12/07 11:40:06;;;;;;;31.33;6.80;;;;;;;;;;4989676;28;44205;-80
2021/12/07 11:42:36;;;;;;;29.27;6.45;;;;;;;;;;4988740;28;44885;-84
2021/12/07 11:45:07;;;;;;;22.27;6.40;;;;;;;;;;4987622;28;45816;-84
2021/12/07 11:47:39;;;;;;;21.48;6.22;;;;;;;;;;4989325;28;45003;-92
2021/12/07 11:50:17;;;;;;;19.73;6.07;;;;;;;;;;4987846;28;44658;-87
2021/12/07 11:52:45;;;;;;;19.73;5.40;;;;;;;;;;4989768;28;44993;-85
2021/12/07 11:55:12;;;;;;;21.27;6.00;;;;;;;;;;4989859;28;44836;-85
2021/12/07 11:57:39;;;;;;;23.60;5.95;;;;;;;;;;4991097;28;43626;-92
2021/12/07 12:00:07;;;;;;;24.42;5.90;;;;;;;;;;4990393;28;46066;-91
2021/12/07 12:02:34;;;;;;;19.70;5.63;;;;;;;;;;4990067;28;43899;-91
2021/12/07 12:05:01;;;;;;;21.60;5.38;;;;;;;;;;4990563;28;43606;-86
2021/12/07 12:07:28;;;;;;;22.15;5.18;;;;;;;;;;4990109;28;46026;-85
2021/12/07 12:09:55;;;;;;;19.25;5.80;;;;;;;;;;4990267;28;42918;-89
2021/12/07 12:12:26;;;;;;;26.08;6.00;;;;;;;;;;4990514;28;44014;-85
2021/12/07 12:14:52;;;;;;;20.70;6.38;;;;;;;;;;4988913;28;44060;-90
2021/12/07 12:17:42;;;;;;;20.15;5.97;;;;;;;;;;4989667;28;44863;-90
2021/12/07 12:20:18;;;;;;;20.95;5.75;;;;;;;;;;4990477;28;44000;-92
2021/12/07 12:22:54;;;;;;;18.30;5.07;;;;;;;;;;4990639;28;20508;-83
2021/12/07 12:25:25;;;;;;;20.60;5.35;;;;;;;;;;4989241;28;43946;-85
2021/12/07 12:27:53;;;;;;;17.15;4.75;;;;;;;;;;4990832;28;46091;-86
2021/12/07 12:30:20;;;;;;;19.67;4.63;;;;;;;;;;5008718;28;20065;-91
2021/12/07 12:32:54;;;;;;;15.80;4.40;;;;;;;;;;5010655;28;45647;-84
2021/12/07 12:35:47;;;;;;;16.92;4.93;;;;;;;;;;5009184;28;42845;-90
2021/12/07 12:38:15;;;;;;;15.50;4.75;;;;;;;;;;5007323;28;45896;-85
2021/12/07 12:40:41;;;;;;;22.40;5.38;;;;;;;;;;5010054;28;43819;-85
2021/12/07 12:43:08;;;;;;;15.65;5.32;;;;;;;;;;4996287;28;44841;-91
2021/12/07 12:45:38;;;;;;;22.75;5.20;;;;;;;;;;4989476;28;45804;-84
2021/12/07 12:48:12;;;;;;;20.50;5.20;;;;;;;;;;4989860;28;44035;-83
2021/12/07 12:50:42;;;;;;;17.38;5.10;;;;;;;;;;4990200;28;43735;-83
2021/12/07 12:53:11;;;;;;;16.40;4.65;;;;;;;;;;4989647;28;45665;-83
2021/12/07 12:55:42;;;;;;;24.33;5.47;;;;;;;;;;4990528;28;43926;-83
2021/12/07 12:58:20;;;;;;;11.02;4.25;;;;;;;;;;4989689;28;43649;-82
2021/12/07 13:00:59;;;;;;;23.00;4.15;;;;;;;;;;4990080;28;42680;-83
2021/12/07 13:03:36;;;;;;;16.80;4.85;;;;;;;;;;4989450;28;44943;-82
2021/12/07 13:06:03;;;;;;;14.18;4.78;;;;;;;;;;4989460;28;45917;-84
2021/12/07 13:08:30;;;;;;;17.88;4.65;;;;;;;;;;4989808;28;43952;-84
2021/12/07 13:10:57;;;;;;;16.88;5.10;;;;;;;;;;4989862;28;44904;-84
2021/12/07 13:13:35;;;;;;;18.52;5.03;;;;;;;;;;4988681;28;46080;-84
2021/12/07 13:16:12;;;;;;;14.18;3.95;;;;;;;;;;4989911;28;43989;-84
2021/12/07 13:18:39;;;;;;;15.73;4.57;;;;;;;;;;4989812;28;37116;-84
2021/12/07 13:21:18;;;;;;;15.50;4.38;;;;;;;;;;4988682;28;45684;-84
2021/12/07 13:23:55;;;;;;;12.73;4.40;;;;;;;;;;4989653;28;42573;-84
2021/12/07 13:26:24;;;;;;;18.20;4.13;;;;;;;;;;4989574;28;45767;-82
2021/12/07 13:29:10;;;;;;;13.15;3.65;;;;;;;;;;4998147;28;27428;-84
2021/12/07 13:31:37;;;;;;;12.65;4.10;;;;;;;;;;5008748;28;43990;-83
2021/12/07 13:34:04;;;;;;;12.32;3.92;;;;;;;;;;5008709;28;43513;-83
2021/12/07 13:36:37;;;;;;;15.38;3.75;;;;;;;;;;5008428;28;45755;-82
2021/12/07 13:39:26;;;;;;;15.65;3.90;;;;;;;;;;5009197;28;41782;-85
2021/12/07 13:42:05;;;;;;;15.55;4.38;;;;;;;;;;5005162;28;44201;-85
2021/12/07 13:44:35;;;;;;;10.95;4.07;;;;;;;;;;4989370;28;43114;-84
2021/12/07 13:47:16;;;;;;;17.52;4.03;;;;;;;;;;4988849;28;45894;-86
2021/12/07 13:49:48;;;;;;;17.98;3.97;;;;;;;;;;4990237;28;44846;-87
2021/12/07 13:52:17;;;;;;;15.48;3.63;;;;;;;;;;4997113;28;40774;-87
2021/12/07 13:54:46;;;;;;;12.98;4.22;;;;;;;;;;5007199;28;43556;-87
2021/12/07 13:57:14;;;;;;;16.52;4.07;;;;;;;;;;5007881;28;45970;-87
2021/12/07 14:00:04;;;;;;;13.15;3.70;;;;;;;;;;5007535;28;42427;-87
2021/12/07 14:02:31;;;;;;;18.15;4.20;;;;;;;;;;5007562;28;46010;-86
2021/12/07 14:05:00;;;;;;;20.20;4.47;;;;;;;;;;5007804;28;43699;-90
2021/12/07 14:07:26;;;;;;;13.05;4.78;;;;;;;;;;5007867;28;44230;-85
2021/12/07 14:09:56;;;;;;;20.88;5.53;;;;;;;;;;5008142;28;45480;-91
2021/12/07 14:12:43;;;;;;;15.20;4.05;;;;;;;;;;5000679;28;43178;-94
2021/12/07 14:15:10;;;;;;;13.98;4.13;;;;;;;;;;4987228;28;20050;-87
2021/12/07 14:17:38;;;;;;;16.08;4.10;;;;;;;;;;4988515;28;46336;-86
2021/12/07 14:20:05;;;;;;;20.27;4.57;;;;;;;;;;4988675;28;20055;-85
2021/12/07 14:22:32;;;;;;;12.70;4.30;;;;;;;;;;4987907;28;45971;-85
2021/12/07 14:24:59;;;;;;;12.05;3.85;;;;;;;;;;4987308;28;44594;-85
2021/12/07 14:27:26;;;;;;;15.52;4.07;;;;;;;;;;4968422;28;45683;-89
2021/12/07 14:29:56;;;;;;;12.23;3.47;;;;;;;;;;5000508;28;45955;-91
2021/12/07 14:32:28;;;;;;;16.13;4.05;;;;;;;;;;5007755;28;43966;-90
2021/12/07 14:34:59;;;;;;;11.52;4.03;;;;;;;;;;5007778;28;45510;-84
2021/12/07 14:37:26;;;;;;;18.02;4.85;;;;;;;;;;5008006;28;37674;-92
2021/12/07 14:39:54;;;;;;;12.75;3.75;;;;;;;;;;5008518;28;43687;-85
2021/12/07 14:42:21;;;;;;;15.85;4.38;;;;;;;;;;4999477;28;43157;-86
2021/12/07 14:44:51;;;;;;;15.43;3.90;;;;;;;;;;4981627;28;46263;-87
2021/12/07 14:47:18;;;;;;;16.10;4.65;;;;;;;;;;4986635;28;43905;-87
2021/12/07 14:50:03;;;;;;;18.15;3.90;;;;;;;;;;5004749;28;44116;-86
2021/12/07 14:52:33;;;;;;;13.88;3.65;;;;;;;;;;4977286;28;43959;-87
2021/12/07 14:55:06;;;;;;;22.65;4.57;;;;;;;;;;4970728;28;43413;-87
2021/12/07 14:57:35;;;;;;;10.90;3.35;;;;;;;;;;4990248;28;46473;-87
2021/12/07 15:00:04;;;;;;;10.73;3.35;;;;;;;;;;4990154;28;44208;-88
2021/12/07 15:02:32;;;;;;;17.65;4.72;;;;;;;;;;4990978;28;45644;-86
2021/12/07 15:05:01;;;;;;;12.00;3.70;;;;;;;;;;4989611;28;45833;-87
2021/12/07 15:07:33;;;;;;;12.00;3.85;;;;;;;;;;4990436;28;42892;-87
2021/12/07 15:10:02;;;;;;;12.07;4.25;;;;;;;;;;4990951;28;45417;-87
2021/12/07 15:12:29;;;;;;;;;;;;;;;;;;4991410;28;45167;-86
2021/12/07 15:14:57;;;;;;;15.73;3.70;;;;;;;;;;4990779;28;45370;-87
2021/12/07 15:17:24;;;;;;;18.45;3.80;;;;;;;;;;4990036;28;45058;-87
2021/12/07 15:19:51;;;;;;;17.45;4.03;;;;;;;;;;4989339;28;44335;-87
2021/12/07 15:22:20;;;;;;;19.80;4.38;;;;;;;;;;4990511;28;45823;-86
2021/12/07 15:24:47;;;;;;;14.18;3.58;;;;;;;;;;4990128;28;43345;-86
2021/12/07 15:27:14;;;;;;;17.98;3.72;;;;;;;;;;4989607;28;42863;-87
2021/12/07 15:29:41;;;;;;;13.93;3.88;;;;;;;;;;4990598;28;44624;-87
2021/12/07 15:32:09;;;;;;;12.90;3.50;;;;;;;;;;5001707;28;43957;-87
2021/12/07 15:34:37;;;;;;;16.85;4.88;;;;;;;;;;5009213;28;46106;-87
2021/12/07 15:37:06;;;;;;;18.15;3.40;;;;;;;;;;5009948;28;46485;-87
2021/12/07 15:39:34;;;;;;;17.70;3.45;;;;;;;;;;5014834;28;42830;-87
2021/12/07 15:42:02;;;;;;;10.35;3.35;;;;;;;;;;5025423;28;43178;-87
2021/12/07 15:44:32;;;;;;;9.10;3.25;;;;;;;;;;5010454;28;20393;-87
2021/12/07 15:47:02;;;;;;;12.07;3.25;;;;;;;;;;5010084;28;44872;-88
2021/12/07 15:49:36;;;;;;;17.45;3.08;;;;;;;;;;5009811;28;44630;-86
2021/12/07 15:52:05;;;;;;;10.68;2.75;;;;;;;;;;5010075;28;46004;-85
2021/12/07 15:54:55;;;;;;;12.77;3.40;;;;;;;;;;5009118;28;45622;-83
2021/12/07 15:57:22;;;;;;;13.38;3.28;;;;;;;;;;5009474;28;44036;-83
2021/12/07 16:00:00;;;;;;;20.70;3.30;;;;;;;;;;5009540;28;44954;-83
2021/12/07 16:02:27;;;;;;;16.08;3.45;;;;;;;;;;5008868;28;45799;-83
2021/12/07 16:05:10;;;;;;;15.27;3.88;;;;;;;;;;5008949;28;45936;-86
2021/12/07 16:07:41;;;;;;;10.93;3.28;;;;;;;;;;5009397;28;44892;-85
2021/12/07 16:10:09;;;;;;;18.63;3.65;;;;;;;;;;5009226;28;44972;-83
2021/12/07 16:12:36;;;;;;;13.40;3.75;;;;;;;;;;5008930;28;44916;-84